createdAt,value
2018-07-22T00:01:03.674Z,70.41
2018-07-22T00:03:33.636Z,70.44
2018-07-22T00:06:03.519Z,70.50
2018-07-22T00:08:33.535Z,70.54
2018-07-22T00:11:03.421Z,70.62
2018-07-22T00:13:33.728Z,69.56
2018-07-22T00:16:03.920Z,70.17
2018-07-22T00:18:33.941Z,70.29
2018-07-22T00:21:03.679Z,69.94
2018-07-22T00:23:33.687Z,70.27
2018-07-22T00:26:03.593Z,71.37
2018-07-22T00:28:33.674Z,71.51
2018-07-22T00:31:03.392Z,72.15
2018-07-22T00:33:33.312Z,72.37
2018-07-22T00:36:03.022Z,72.27
2018-07-22T00:38:32.762Z,71.58
2018-07-22T00:41:02.384Z,72.59
2018-07-22T00:43:32.211Z,72.21
2018-07-22T00:46:01.839Z,72.68
2018-07-22T00:48:31.506Z,73.35
2018-07-22T00:51:01.134Z,72.27
2018-07-22T00:53:30.868Z,73.46
2018-07-22T00:56:00.627Z,73.08
2018-07-22T00:58:30.419Z,73.07
2018-07-22T01:01:00.145Z,73.27
2018-07-22T01:03:29.791Z,73.77
2018-07-22T01:05:59.593Z,73.88
2018-07-22T01:08:30.129Z,73.35
2018-07-22T01:11:00.041Z,73.55
2018-07-22T01:13:29.769Z,73.93
2018-07-22T01:15:59.406Z,74.29
2018-07-22T01:18:29.078Z,73.87
2018-07-22T01:20:58.979Z,74.73
2018-07-22T01:23:28.677Z,74.08
2018-07-22T01:25:58.361Z,74.79
2018-07-22T01:28:28.047Z,75.09
2018-07-22T01:30:57.661Z,74.95
2018-07-22T01:33:27.311Z,74.09
2018-07-22T01:35:57.536Z,74.51
2018-07-22T01:38:27.729Z,74.67
2018-07-22T01:40:57.528Z,74.06
2018-07-22T01:43:27.883Z,74.77
2018-07-22T01:45:58.026Z,74.52
2018-07-22T01:48:27.675Z,74.53
2018-07-22T01:50:57.453Z,74.00
2018-07-22T01:53:28.165Z,73.98
2018-07-22T01:55:57.843Z,74.82
2018-07-22T01:58:27.888Z,74.58
2018-07-22T02:00:57.761Z,74.05
2018-07-22T02:03:27.397Z,74.25
2018-07-22T02:05:57.853Z,72.85
2018-07-22T02:08:27.508Z,73.23
2018-07-22T02:10:57.328Z,73.59
2018-07-22T02:13:27.686Z,73.08
2018-07-22T02:15:58.020Z,72.08
2018-07-22T02:18:27.681Z,71.64
2018-07-22T02:20:57.879Z,71.80
2018-07-22T02:23:28.512Z,71.73
2018-07-22T02:25:58.760Z,72.21
2018-07-22T02:28:28.466Z,71.91
2018-07-22T02:30:58.224Z,70.11
2018-07-22T02:33:27.883Z,71.06
2018-07-22T02:35:57.728Z,70.33
2018-07-22T02:38:27.570Z,69.78
2018-07-22T02:40:57.602Z,70.43
2018-07-22T02:43:27.219Z,70.46
2018-07-22T02:45:56.918Z,70.91
2018-07-22T02:48:26.764Z,70.05
2018-07-22T02:50:57.564Z,69.91
2018-07-22T02:53:27.223Z,70.43
2018-07-22T02:55:56.992Z,70.70
2018-07-22T02:58:26.997Z,71.80
2018-07-22T03:00:57.435Z,72.07
2018-07-22T03:03:27.151Z,71.95
2018-07-22T03:05:56.751Z,73.15
2018-07-22T03:08:27.332Z,73.59
2018-07-22T03:10:57.214Z,74.41
2018-07-22T03:13:26.881Z,74.37
2018-07-22T03:15:56.731Z,75.07
2018-07-22T03:18:27.133Z,75.12
2018-07-22T03:20:57.056Z,75.23
2018-07-22T03:23:26.888Z,74.62
2018-07-22T03:25:56.683Z,74.89
2018-07-22T03:28:27.113Z,75.36
2018-07-22T03:30:56.847Z,74.73
2018-07-22T03:33:26.722Z,75.47
2018-07-22T03:35:57.141Z,75.37
2018-07-22T03:38:26.899Z,75.67
2018-07-22T03:40:56.853Z,75.94
2018-07-22T03:43:26.586Z,76.30
2018-07-22T03:45:57.359Z,76.99
2018-07-22T03:48:27.180Z,78.07
2018-07-22T03:50:56.918Z,77.95
2018-07-22T03:53:26.784Z,77.83
2018-07-22T03:55:56.567Z,78.36
2018-07-22T03:58:27.143Z,78.87
2018-07-22T04:00:57.007Z,79.03
2018-07-22T04:03:26.794Z,78.73
2018-07-22T04:06:03.965Z,79.56
2018-07-22T04:08:33.690Z,79.99
2018-07-22T04:11:03.395Z,80.35
2018-07-22T04:13:33.102Z,80.45
2018-07-22T04:16:03.434Z,81.86
2018-07-22T04:18:33.604Z,81.15
2018-07-22T04:21:03.289Z,81.87
2018-07-22T04:23:32.980Z,82.86
2018-07-22T04:26:02.745Z,82.69
2018-07-22T04:28:32.450Z,83.56
2018-07-22T04:31:02.909Z,82.43
2018-07-22T04:33:32.539Z,83.03
2018-07-22T04:36:02.805Z,83.96
2018-07-22T04:38:33.036Z,83.97
2018-07-22T04:41:02.765Z,84.63
2018-07-22T04:43:32.579Z,84.27
2018-07-22T04:46:02.578Z,84.96
2018-07-22T04:48:32.389Z,84.18
2018-07-22T04:51:02.256Z,84.72
2018-07-22T04:53:33.321Z,84.69
2018-07-22T04:56:03.561Z,85.39
2018-07-22T04:58:33.936Z,84.82
2018-07-22T05:01:03.881Z,84.30
2018-07-22T05:03:34.360Z,85.96
2018-07-22T05:06:05.377Z,85.76
2018-07-22T05:08:35.165Z,85.80
2018-07-22T05:11:04.974Z,87.51
2018-07-22T05:13:34.947Z,85.10
2018-07-22T05:16:05.203Z,86.38
2018-07-22T05:18:35.256Z,85.81
2018-07-22T05:21:05.407Z,87.07
2018-07-22T05:23:35.835Z,84.97
2018-07-22T05:26:06.109Z,85.49
2018-07-22T05:28:35.800Z,84.46
2018-07-22T05:31:05.493Z,85.01
2018-07-22T05:33:35.534Z,85.83
2018-07-22T05:36:05.738Z,86.59
2018-07-22T05:38:35.476Z,87.17
2018-07-22T05:41:05.345Z,87.28
2018-07-22T05:43:35.319Z,87.31
2018-07-22T05:46:05.203Z,84.91
2018-07-22T05:48:36.632Z,85.94
2018-07-22T05:51:06.455Z,85.30
2018-07-22T05:53:36.379Z,87.34
2018-07-22T05:56:07.434Z,86.26
2018-07-22T05:58:37.581Z,87.19
2018-07-22T06:01:07.669Z,86.94
2018-07-22T06:03:37.765Z,85.42
2018-07-22T06:06:08.034Z,86.19
2018-07-22T06:08:38.119Z,84.29
2018-07-22T06:11:08.157Z,82.48
2018-07-22T06:13:37.994Z,73.47
2018-07-22T06:16:08.251Z,70.93
2018-07-22T06:18:38.106Z,71.22
2018-07-22T06:21:08.076Z,66.18
2018-07-22T06:23:37.839Z,67.50
2018-07-22T06:26:07.763Z,60.59
2018-07-22T06:28:37.555Z,62.53
2018-07-22T06:31:07.568Z,59.53
2018-07-22T06:33:37.359Z,65.26
2018-07-22T06:36:07.765Z,55.30
2018-07-22T06:38:37.776Z,63.33
2018-07-22T06:41:07.693Z,64.21
2018-07-22T06:43:37.401Z,55.16
2018-07-22T06:46:07.517Z,57.35
2018-07-22T06:48:37.358Z,55.64
2018-07-22T06:51:07.826Z,57.19
2018-07-22T06:53:37.671Z,50.89
2018-07-22T06:56:07.560Z,51.89
2018-07-22T06:58:37.390Z,56.75
2018-07-22T07:01:07.194Z,54.27
2018-07-22T07:03:37.000Z,57.45
2018-07-22T07:06:06.954Z,55.47
2018-07-22T07:08:37.101Z,52.99
2018-07-22T07:11:07.616Z,52.04
2018-07-22T07:13:37.499Z,51.91
2018-07-22T07:16:07.544Z,50.77
2018-07-22T07:18:37.912Z,59.27
2018-07-22T07:21:08.464Z,53.40
2018-07-22T07:23:39.487Z,52.12
2018-07-22T07:26:09.328Z,54.57
2018-07-22T07:28:39.085Z,52.25
2018-07-22T07:31:09.896Z,49.59
2018-07-22T07:33:40.308Z,58.89
2018-07-22T07:36:10.009Z,52.49
2018-07-22T07:38:39.650Z,54.08
2018-07-22T07:41:09.461Z,54.99
2018-07-22T07:43:39.212Z,59.01
2018-07-22T07:46:09.264Z,55.94
2018-07-22T07:48:38.974Z,53.98
2018-07-22T07:51:08.786Z,56.99
2018-07-22T07:53:38.875Z,56.70
2018-07-22T07:56:08.694Z,58.52
2018-07-22T07:58:38.459Z,56.95
2018-07-22T08:01:08.184Z,55.86
2018-07-22T08:03:37.777Z,55.27
2018-07-22T08:06:07.701Z,51.51
2018-07-22T08:08:38.096Z,52.18
2018-07-22T08:11:07.895Z,57.09
2018-07-22T08:13:37.530Z,58.03
2018-07-22T08:16:07.684Z,59.49
2018-07-22T08:18:37.426Z,53.76
2018-07-22T08:21:09.423Z,56.68
2018-07-22T08:23:39.144Z,55.15
2018-07-22T08:26:08.851Z,56.78
2018-07-22T08:29:29.406Z,56.28
2018-07-22T08:31:59.294Z,57.35
2018-07-22T08:34:29.133Z,58.26
2018-07-22T08:36:59.170Z,58.90
2018-07-22T08:39:29.829Z,57.13
2018-07-22T08:41:59.991Z,55.87
2018-07-22T08:44:30.084Z,58.48
2018-07-22T08:46:59.739Z,53.26
2018-07-22T08:49:29.428Z,54.78
2018-07-22T08:51:59.091Z,56.01
2018-07-22T08:54:28.791Z,54.79
2018-07-22T08:56:58.475Z,52.47
2018-07-22T08:59:28.234Z,53.70
2018-07-22T09:01:57.896Z,48.63
2018-07-22T09:04:27.552Z,54.59
2018-07-22T09:06:57.299Z,52.95
2018-07-22T09:09:27.481Z,53.04
2018-07-22T09:11:57.804Z,55.07
2018-07-22T09:14:27.571Z,58.55
2018-07-22T09:16:57.153Z,55.35
2018-07-22T09:19:26.819Z,51.86
2018-07-22T09:21:56.396Z,51.37
2018-07-22T09:24:26.153Z,51.75
2018-07-22T09:26:55.815Z,51.15
2018-07-22T09:29:25.455Z,52.21
2018-07-22T09:31:55.159Z,50.89
2018-07-22T09:34:25.008Z,45.27
2018-07-22T09:36:54.706Z,49.90
2018-07-22T09:39:24.361Z,48.26
2018-07-22T09:41:54.036Z,50.92
2018-07-22T09:44:23.636Z,48.28
2018-07-22T09:46:53.405Z,48.20
2018-07-22T09:49:22.771Z,49.42
2018-07-22T09:51:52.529Z,52.25
2018-07-22T09:54:22.465Z,51.79
2018-07-22T09:56:52.100Z,49.41
2018-07-22T09:59:22.452Z,48.37
2018-07-22T10:01:58.813Z,50.51
2018-07-22T10:04:28.607Z,51.69
2018-07-22T10:06:58.401Z,49.25
2018-07-22T10:09:28.161Z,51.18
2018-07-22T10:11:57.995Z,48.72
2018-07-22T10:14:27.345Z,48.63
2018-07-22T10:16:56.993Z,44.52
2018-07-22T10:19:26.335Z,47.90
2018-07-22T10:21:56.007Z,48.36
2018-07-22T10:24:25.739Z,46.03
2018-07-22T10:26:55.963Z,45.22
2018-07-22T10:29:25.880Z,44.06
2018-07-22T10:31:55.733Z,43.44
2018-07-22T10:34:25.738Z,43.36
2018-07-22T10:36:55.753Z,43.59
2018-07-22T10:39:25.617Z,44.78
2018-07-22T10:41:56.158Z,45.79
2018-07-22T10:44:26.148Z,45.17
2018-07-22T10:46:55.899Z,43.85
2018-07-22T10:49:26.003Z,44.02
2018-07-22T10:51:55.674Z,44.00
2018-07-22T10:54:25.518Z,42.32
2018-07-22T10:56:55.552Z,42.14
2018-07-22T10:59:25.823Z,42.30
2018-07-22T11:01:55.681Z,42.91
2018-07-22T11:04:25.803Z,42.49
2018-07-22T11:06:55.469Z,44.09
2018-07-22T11:09:26.050Z,44.17
2018-07-22T11:11:56.076Z,42.72
2018-07-22T11:14:26.113Z,44.33
2018-07-22T11:16:55.787Z,42.91
2018-07-22T11:19:25.708Z,42.54
2018-07-22T11:21:55.324Z,43.48
2018-07-22T11:24:25.833Z,43.70
2018-07-22T11:26:55.627Z,42.82
2018-07-22T11:29:25.316Z,42.16
2018-07-22T11:31:55.038Z,39.95
2018-07-22T11:34:25.376Z,41.80
2018-07-22T11:36:55.806Z,41.33
2018-07-22T11:39:25.616Z,41.42
2018-07-22T11:41:55.920Z,42.39
2018-07-22T11:44:26.336Z,41.73
2018-07-22T11:46:56.073Z,41.96
2018-07-22T11:49:25.692Z,40.54
2018-07-22T11:51:55.413Z,40.21
2018-07-22T11:54:25.113Z,40.29
2018-07-22T11:56:55.094Z,40.19
2018-07-22T11:59:24.772Z,41.20
2018-07-22T12:01:54.858Z,41.26
2018-07-22T12:04:25.213Z,40.21
2018-07-22T12:06:55.141Z,40.22
2018-07-22T12:09:24.764Z,39.34
2018-07-22T12:11:54.527Z,40.89
2018-07-22T12:14:24.167Z,39.72
2018-07-22T12:16:53.895Z,39.56
2018-07-22T12:19:23.602Z,38.63
2018-07-22T12:21:53.291Z,38.94
2018-07-22T12:24:23.444Z,39.97
2018-07-22T12:26:53.773Z,39.11
2018-07-22T12:29:23.436Z,37.61
2018-07-22T12:31:53.160Z,38.80
2018-07-22T12:34:22.966Z,39.56
2018-07-22T12:36:52.856Z,39.29
2018-07-22T12:39:23.105Z,38.02
2018-07-22T12:41:52.903Z,38.32
2018-07-22T12:44:24.047Z,39.92
2018-07-22T12:46:54.289Z,38.49
2018-07-22T12:49:24.699Z,39.31
2018-07-22T12:51:54.380Z,39.27
2018-07-22T12:54:24.388Z,38.55
2018-07-22T12:56:54.203Z,38.44
2018-07-22T12:59:24.143Z,38.43
2018-07-22T13:01:54.588Z,38.35
2018-07-22T13:04:24.485Z,38.04
2018-07-22T13:06:58.028Z,38.13
2018-07-22T13:09:27.824Z,37.12
2018-07-22T13:11:57.451Z,38.49
2018-07-22T13:14:27.080Z,37.93
2018-07-22T13:16:56.945Z,36.58
2018-07-22T13:19:26.816Z,36.82
2018-07-22T13:21:56.541Z,37.47
2018-07-22T13:24:28.367Z,36.64
2018-07-22T13:26:58.265Z,36.55
2018-07-22T13:29:28.122Z,37.40
2018-07-22T13:31:58.789Z,38.49
2018-07-22T13:34:28.422Z,36.78
2018-07-22T13:36:58.084Z,37.15
2018-07-22T13:39:27.781Z,36.71
2018-07-22T13:41:57.426Z,36.27
2018-07-22T13:44:27.715Z,36.72
2018-07-22T13:46:57.342Z,37.60
2018-07-22T13:49:27.302Z,35.88
2018-07-22T13:51:57.063Z,36.84
2018-07-22T13:54:33.304Z,36.51
2018-07-22T13:57:03.647Z,33.60
2018-07-22T13:59:33.776Z,35.10
2018-07-22T14:02:03.577Z,35.62
2018-07-22T14:04:36.253Z,36.36
2018-07-22T14:07:06.015Z,36.00
2018-07-22T14:09:35.750Z,35.09
2018-07-22T14:12:05.725Z,36.02
2018-07-22T14:14:35.267Z,35.14
2018-07-22T14:17:04.957Z,34.98
2018-07-22T14:19:34.602Z,34.27
2018-07-22T14:22:04.259Z,35.29
2018-07-22T14:24:34.054Z,36.67
2018-07-22T14:27:03.960Z,37.27
2018-07-22T14:29:33.602Z,38.58
2018-07-22T14:32:03.375Z,38.70
2018-07-22T14:34:32.997Z,39.03
2018-07-22T14:37:02.821Z,38.82
2018-07-22T14:39:32.537Z,39.87
2018-07-22T14:42:02.257Z,39.95
2018-07-22T14:44:31.931Z,39.93
2018-07-22T14:47:01.786Z,40.21
2018-07-22T14:49:31.361Z,40.63
2018-07-22T14:52:01.328Z,40.01
2018-07-22T14:54:31.802Z,40.84
2018-07-22T14:57:01.530Z,40.31
2018-07-22T14:59:31.868Z,40.54
2018-07-22T15:02:01.741Z,40.37
2018-07-22T15:04:32.363Z,39.24
2018-07-22T15:07:02.065Z,39.10
2018-07-22T15:09:31.916Z,40.14
2018-07-22T15:12:01.786Z,39.97
2018-07-22T15:14:31.530Z,40.16
2018-07-22T15:17:01.311Z,39.82
2018-07-22T15:19:31.038Z,39.67
2018-07-22T15:22:00.855Z,39.48
2018-07-22T15:24:31.457Z,38.17
2018-07-22T15:27:01.146Z,38.93
2018-07-22T15:29:31.027Z,39.66
2018-07-22T15:32:00.871Z,39.16
2018-07-22T15:34:30.599Z,38.14
2018-07-22T15:37:00.453Z,38.82
2018-07-22T15:39:30.199Z,38.49
2018-07-22T15:41:59.981Z,39.29
2018-07-22T15:44:29.924Z,38.37
2018-07-22T15:46:59.548Z,37.80
2018-07-22T15:49:29.264Z,37.97
2018-07-22T15:51:58.976Z,38.45
2018-07-22T15:54:28.646Z,38.93
2018-07-22T15:56:58.283Z,38.44
2018-07-22T15:59:27.952Z,37.54
2018-07-22T16:02:00.118Z,37.07
2018-07-22T16:04:29.916Z,37.45
2018-07-22T16:06:59.651Z,36.92
2018-07-22T16:09:29.356Z,37.90
2018-07-22T16:11:59.720Z,38.55
2018-07-22T16:14:29.606Z,38.67
2018-07-22T16:16:59.282Z,37.93
2018-07-22T16:19:29.596Z,37.78
2018-07-22T16:21:59.218Z,38.23
2018-07-22T16:24:28.974Z,38.80
2018-07-22T16:26:58.759Z,38.97
2018-07-22T16:29:28.407Z,39.20
2018-07-22T16:31:58.225Z,39.86
2018-07-22T16:34:28.895Z,39.64
2018-07-22T16:36:58.624Z,39.81
2018-07-22T16:39:28.364Z,39.88
2018-07-22T16:41:57.995Z,39.81
2018-07-22T16:44:27.571Z,39.93
2018-07-22T16:46:57.799Z,39.79
2018-07-22T16:49:27.608Z,38.94
2018-07-22T16:51:57.804Z,39.27
2018-07-22T16:54:27.445Z,40.27
2018-07-22T16:56:57.227Z,40.24
2018-07-22T16:59:26.869Z,40.12
2018-07-22T17:01:56.610Z,41.34
2018-07-22T17:04:25.983Z,41.50
2018-07-22T17:06:55.543Z,41.68
2018-07-22T17:09:25.299Z,42.68
2018-07-22T17:11:55.461Z,42.46
2018-07-22T17:14:24.715Z,42.46
2018-07-22T17:16:54.642Z,42.34
2018-07-22T17:19:24.341Z,42.24
2018-07-22T17:21:54.404Z,43.14
2018-07-22T17:24:24.649Z,42.55
2018-07-22T17:26:54.692Z,43.17
2018-07-22T17:29:24.781Z,43.25
2018-07-22T17:31:54.830Z,43.11
2018-07-22T17:34:24.469Z,42.48
2018-07-22T17:36:54.446Z,42.13
2018-07-22T17:39:24.180Z,42.30
2018-07-22T17:41:54.057Z,42.21
2018-07-22T17:44:23.782Z,42.40
2018-07-22T17:46:53.854Z,42.80
2018-07-22T17:49:23.550Z,43.38
2018-07-22T17:51:53.998Z,42.71
2018-07-22T17:54:23.755Z,43.46
2018-07-22T17:56:53.516Z,42.90
2018-07-22T17:59:23.283Z,43.33
2018-07-22T18:01:57.971Z,42.65
2018-07-22T18:04:30.562Z,42.66
2018-07-22T18:07:00.406Z,43.35
2018-07-22T18:09:30.019Z,43.48
2018-07-22T18:11:59.749Z,43.09
2018-07-22T18:14:29.397Z,43.89
2018-07-22T18:16:59.048Z,43.24
2018-07-22T18:19:28.690Z,44.32
2018-07-22T18:21:59.092Z,43.32
2018-07-22T18:24:28.747Z,44.41
2018-07-22T18:26:58.726Z,44.29
2018-07-22T18:29:28.359Z,44.96
2018-07-22T18:31:58.281Z,44.37
2018-07-22T18:34:28.061Z,44.55
2018-07-22T18:36:58.172Z,44.87
2018-07-22T18:39:28.194Z,45.43
2018-07-22T18:41:58.188Z,45.31
2018-07-22T18:44:27.860Z,46.03
2018-07-22T18:46:58.074Z,46.54
2018-07-22T18:49:28.131Z,46.90
2018-07-22T18:51:58.245Z,47.16
2018-07-22T18:54:28.173Z,46.64
2018-07-22T18:56:58.370Z,46.58
2018-07-22T18:59:28.305Z,47.19
2018-07-22T19:01:58.638Z,47.46
2018-07-22T19:04:28.674Z,48.66
2018-07-22T19:06:59.068Z,48.58
2018-07-22T19:09:29.241Z,48.39
2018-07-22T19:11:59.592Z,48.72
2018-07-22T19:14:29.739Z,49.04
2018-07-22T19:17:00.133Z,48.83
2018-07-22T19:19:30.345Z,49.93
2018-07-22T19:22:00.800Z,49.96
2018-07-22T19:24:30.771Z,49.76
2018-07-22T19:27:02.622Z,49.11
2018-07-22T19:29:32.716Z,49.94
2018-07-22T19:32:03.101Z,50.36
2018-07-22T19:34:33.727Z,50.40
2018-07-22T19:37:03.661Z,49.80
2018-07-22T19:39:34.535Z,50.23
2018-07-22T19:42:04.895Z,50.58
2018-07-22T19:44:34.901Z,50.96
2018-07-22T19:47:04.878Z,51.31
2018-07-22T19:49:34.916Z,50.96
2018-07-22T19:52:05.661Z,50.90
2018-07-22T19:54:35.720Z,52.38
2018-07-22T19:57:05.678Z,51.58
2018-07-22T19:59:35.710Z,51.70
2018-07-22T20:02:05.726Z,52.96
2018-07-22T20:04:35.692Z,52.75
2018-07-22T20:07:05.825Z,52.24
2018-07-22T20:09:35.928Z,52.63
2018-07-22T20:12:06.061Z,53.34
2018-07-22T20:14:36.184Z,53.72
2018-07-22T20:17:06.703Z,54.40
2018-07-22T20:19:37.462Z,53.82
2018-07-22T20:22:07.397Z,54.26
2018-07-22T20:24:37.433Z,53.84
2018-07-22T20:27:06.883Z,53.37
2018-07-22T20:29:36.761Z,53.38
2018-07-22T20:32:07.030Z,53.59
2018-07-22T20:34:37.550Z,53.97
2018-07-22T20:37:08.039Z,53.96
2018-07-22T20:39:37.881Z,54.77
2018-07-22T20:42:07.902Z,54.14
2018-07-22T20:44:37.840Z,55.06
2018-07-22T20:47:08.816Z,54.95
2018-07-22T20:49:38.217Z,54.77
2018-07-22T20:52:08.301Z,54.29
2018-07-22T20:54:37.994Z,55.25
2018-07-22T20:57:08.105Z,55.88
2018-07-22T20:59:38.473Z,56.03
2018-07-22T21:02:08.763Z,55.62
2018-07-22T21:04:38.857Z,56.58
2018-07-22T21:07:08.829Z,56.43
2018-07-22T21:09:38.498Z,56.46
2018-07-22T21:12:51.261Z,57.25
2018-07-22T21:15:20.911Z,57.10
2018-07-22T21:17:51.416Z,57.52
2018-07-22T21:20:22.040Z,57.85
2018-07-22T21:22:54.678Z,57.80
2018-07-22T21:25:24.339Z,58.42
2018-07-22T21:27:54.178Z,58.29
2018-07-22T21:30:24.327Z,58.38
2018-07-22T21:32:54.130Z,58.69
2018-07-22T21:35:24.221Z,57.61
2018-07-22T21:37:54.439Z,57.50
2018-07-22T21:40:24.765Z,58.14
2018-07-22T21:42:54.519Z,56.71
2018-07-22T21:45:23.810Z,57.23
2018-07-22T21:47:53.541Z,57.26
2018-07-22T21:50:23.281Z,58.49
2018-07-22T21:52:53.583Z,57.77
2018-07-22T21:55:23.268Z,57.52
2018-07-22T21:57:53.082Z,58.81
2018-07-22T22:00:30.193Z,58.42
2018-07-22T22:03:01.604Z,58.51
2018-07-22T22:05:31.467Z,58.85
2018-07-22T22:08:01.226Z,58.31
2018-07-22T22:10:30.952Z,59.07
2018-07-22T22:13:00.601Z,59.30
2018-07-22T22:15:32.085Z,58.80
2018-07-22T22:18:03.805Z,59.25
2018-07-22T22:20:33.701Z,59.16
2018-07-22T22:23:03.648Z,59.90
2018-07-22T22:25:33.347Z,59.19
2018-07-22T22:28:03.081Z,59.48
2018-07-22T22:30:33.814Z,59.75
2018-07-22T22:33:03.641Z,59.89
2018-07-22T22:35:39.516Z,59.45
2018-07-22T22:38:09.746Z,59.62
2018-07-22T22:40:39.996Z,60.20
2018-07-22T22:43:09.666Z,60.13
2018-07-22T22:45:39.298Z,60.65
2018-07-22T22:48:09.011Z,59.92
2018-07-22T22:50:39.024Z,61.18
2018-07-22T22:53:08.528Z,61.12
2018-07-22T22:55:38.293Z,60.77
2018-07-22T22:58:24.917Z,60.59
2018-07-22T23:00:54.978Z,61.19
2018-07-22T23:03:25.018Z,60.75
2018-07-22T23:05:56.028Z,61.83
2018-07-22T23:08:25.774Z,62.16
2018-07-22T23:10:55.634Z,62.39
2018-07-22T23:13:25.373Z,63.15
2018-07-22T23:15:55.424Z,62.86
2018-07-22T23:18:25.072Z,63.20
2018-07-22T23:20:54.737Z,63.30
2018-07-22T23:23:24.436Z,63.96
2018-07-22T23:25:54.386Z,63.67
2018-07-22T23:28:24.119Z,64.07
2018-07-22T23:30:53.790Z,63.91
2018-07-22T23:33:23.624Z,62.67
2018-07-22T23:35:53.348Z,63.85
2018-07-22T23:38:22.908Z,64.32
2018-07-22T23:40:52.517Z,64.01
2018-07-22T23:43:22.384Z,64.52
2018-07-22T23:45:52.031Z,65.06
2018-07-22T23:48:22.333Z,64.62
2018-07-22T23:50:51.983Z,65.42
2018-07-22T23:53:22.059Z,65.69
2018-07-22T23:55:51.455Z,65.53
2018-07-22T23:58:22.189Z,67.63
